Time;durP1;ratioP1;P1;durP2;ratioP2;P2;SDS_P1;SDS_P2;PMS_P1;PMS_P2;Temp;Humidity;BMP_temperature;BMP_pressure;BME280_temperature;BME280_humidity;BME280_pressure;Samples;Min_cycle;Max_cycle;Signal;HPM_P1;HPM_P2
2024/04/20 00:00:20;;;;;;;21.25;3.83;;;7.50;99.90;;;;;;5454827;26;20006;-90
2024/04/20 00:02:46;;;;;;;19.05;2.35;;;7.60;99.90;;;;;;5454453;26;19995;-89
2024/04/20 00:05:12;;;;;;;18.50;4.25;;;7.50;99.90;;;;;;5454570;26;19999;-89
2024/04/20 00:07:38;;;;;;;13.50;3.25;;;7.50;99.90;;;;;;5455150;26;19995;-88
2024/04/20 00:10:03;;;;;;;27.85;3.60;;;7.40;99.90;;;;;;5454607;26;19999;-88
2024/04/20 00:12:30;;;;;;;24.60;3.38;;;7.40;99.90;;;;;;5454717;26;20010;-88
2024/04/20 00:14:56;;;;;;;24.00;3.97;;;7.30;99.90;;;;;;5454756;26;20330;-89
2024/04/20 00:17:22;;;;;;;18.90;4.18;;;7.30;99.90;;;;;;5454306;26;19999;-89
2024/04/20 00:19:48;;;;;;;18.08;3.65;;;7.30;99.90;;;;;;5454586;26;20003;-89
2024/04/20 00:22:13;;;;;;;21.38;4.07;;;7.30;99.90;;;;;;5454419;26;20010;-88
2024/04/20 00:24:39;;;;;;;22.30;3.40;;;7.30;99.90;;;;;;5454479;26;19999;-89
2024/04/20 00:27:06;;;;;;;16.77;3.20;;;7.40;99.90;;;;;;5454381;26;19998;-88
2024/04/20 00:29:31;;;;;;;13.38;3.05;;;7.40;99.90;;;;;;5463707;26;20011;-89
2024/04/20 00:31:57;;;;;;;19.02;3.67;;;7.40;99.90;;;;;;5456790;26;19999;-88
2024/04/20 00:34:23;;;;;;;20.27;3.60;;;7.40;99.90;;;;;;5454437;26;20076;-88
2024/04/20 00:36:52;;;;;;;9.48;2.17;;;7.30;99.90;;;;;;5453884;26;20460;-89
2024/04/20 00:39:18;;;;;;;15.30;3.13;;;7.30;99.90;;;;;;5457013;26;20002;-89
2024/04/20 00:41:53;;;;;;;10.63;1.75;;;7.30;99.90;;;;;;5461019;26;20079;-89
2024/04/20 00:44:20;;;;;;;11.40;1.88;;;7.20;99.90;;;;;;5459573;26;20367;-87
2024/04/20 00:46:48;;;;;;;12.02;2.35;;;7.00;99.90;;;;;;5460769;26;20022;-88
2024/04/20 00:49:15;;;;;;;23.02;2.03;;;7.00;99.90;;;;;;5464222;26;20010;-89
2024/04/20 00:51:42;;;;;;;20.13;3.75;;;6.90;99.90;;;;;;5463064;26;20003;-88
2024/04/20 00:54:10;;;;;;;19.20;3.25;;;6.80;99.90;;;;;;5464567;26;19998;-88
2024/04/20 00:56:36;;;;;;;20.90;3.90;;;6.80;99.90;;;;;;5461553;26;20010;-88
2024/04/20 00:59:02;;;;;;;16.23;3.03;;;6.90;99.90;;;;;;5471157;26;19995;-89
2024/04/20 01:01:28;;;;;;;21.52;3.42;;;6.90;99.90;;;;;;5468310;26;20010;-87
2024/04/20 01:03:54;;;;;;;16.63;3.10;;;6.90;99.90;;;;;;5469930;26;19995;-89
2024/04/20 01:06:20;;;;;;;18.38;4.05;;;6.90;99.90;;;;;;5467385;26;20003;-89
2024/04/20 01:08:46;;;;;;;13.05;3.15;;;6.90;99.90;;;;;;5464339;26;20511;-88
2024/04/20 01:11:12;;;;;;;16.10;3.78;;;7.00;99.90;;;;;;5467592;26;20009;-89
2024/04/20 01:13:38;;;;;;;20.92;3.38;;;6.90;99.90;;;;;;5456927;26;20450;-89
2024/04/20 01:16:04;;;;;;;23.20;2.83;;;7.00;99.90;;;;;;5457052;26;19999;-90
2024/04/20 01:18:30;;;;;;;19.60;2.92;;;7.00;99.90;;;;;;5456784;26;20021;-88
2024/04/20 01:20:56;;;;;;;22.42;3.55;;;7.00;99.90;;;;;;5457110;26;19998;-90
2024/04/20 01:23:22;;;;;;;24.90;3.45;;;7.40;99.90;;;;;;5457113;26;20326;-90
2024/04/20 01:25:49;;;;;;;18.42;3.20;;;7.10;99.90;;;;;;5456650;26;19999;-89
2024/04/20 01:28:16;;;;;;;21.92;3.78;;;7.00;99.90;;;;;;5456754;26;19995;-89
2024/04/20 01:30:42;;;;;;;29.00;3.20;;;7.10;99.90;;;;;;5456907;26;19999;-88
2024/04/20 01:33:07;;;;;;;20.50;2.75;;;7.10;99.90;;;;;;5456704;26;20010;-89
2024/04/20 01:35:33;;;;;;;24.10;4.15;;;7.10;99.90;;;;;;5456620;26;20002;-88
2024/04/20 01:37:59;;;;;;;12.73;3.13;;;7.10;99.90;;;;;;5456447;26;20014;-88
2024/04/20 01:40:24;;;;;;;17.95;3.25;;;7.10;99.90;;;;;;5456425;26;20531;-88
2024/04/20 01:42:50;;;;;;;13.68;3.20;;;7.10;99.90;;;;;;5456579;26;19998;-88
2024/04/20 01:45:16;;;;;;;14.35;3.30;;;7.60;99.90;;;;;;5456647;26;20017;-88
2024/04/20 01:47:42;;;;;;;13.82;3.25;;;7.00;99.90;;;;;;5456330;26;20006;-89
2024/04/20 01:50:08;;;;;;;13.95;2.38;;;7.00;99.90;;;;;;5456172;26;20364;-89
2024/04/20 01:52:34;;;;;;;14.30;2.80;;;7.10;99.90;;;;;;5455446;26;19999;-88
2024/04/20 01:55:00;;;;;;;17.27;2.55;;;7.10;99.90;;;;;;5456224;26;20368;-88
2024/04/20 01:57:25;;;;;;;15.77;2.90;;;7.10;99.90;;;;;;5456275;26;20006;-89
2024/04/20 01:59:51;;;;;;;15.27;2.17;;;7.30;99.90;;;;;;5456580;26;20006;-89
2024/04/20 02:02:19;;;;;;;16.58;2.78;;;7.20;99.90;;;;;;5456114;26;19995;-88
2024/04/20 02:04:44;;;;;;;26.67;3.35;;;7.20;99.90;;;;;;5456462;26;20013;-88
2024/04/20 02:07:10;;;;;;;15.18;2.75;;;7.10;99.90;;;;;;5456539;26;19999;-89
2024/04/20 02:09:35;;;;;;;22.92;3.33;;;7.20;99.90;;;;;;5456088;26;20010;-89
2024/04/20 02:12:01;;;;;;;22.70;2.72;;;7.20;99.90;;;;;;5456581;26;20019;-88
2024/04/20 02:14:27;;;;;;;26.52;3.17;;;7.20;99.90;;;;;;5456390;26;20007;-89
2024/04/20 02:16:52;;;;;;;16.65;3.13;;;7.20;99.90;;;;;;5455683;26;20075;-89
2024/04/20 02:19:18;;;;;;;25.65;3.53;;;7.20;99.90;;;;;;5456053;26;20006;-89
2024/04/20 02:21:43;;;;;;;22.60;2.60;;;7.20;99.90;;;;;;5455917;26;20096;-88
2024/04/20 02:24:09;;;;;;;17.65;2.80;;;7.20;99.90;;;;;;5456048;26;20003;-87
2024/04/20 02:26:34;;;;;;;20.10;2.80;;;7.20;99.90;;;;;;5456173;26;20070;-89
2024/04/20 02:29:00;;;;;;;15.75;3.53;;;7.20;99.90;;;;;;5463857;26;20009;-89
2024/04/20 02:31:27;;;;;;;20.13;3.67;;;7.20;99.90;;;;;;5457260;26;20323;-87
2024/04/20 02:33:53;;;;;;;12.48;2.42;;;7.20;99.90;;;;;;5455967;26;20002;-88
2024/04/20 02:36:18;;;;;;;21.15;4.07;;;7.20;99.90;;;;;;5456534;26;20075;-89
2024/04/20 02:38:44;;;;;;;15.40;3.05;;;7.30;99.90;;;;;;5457511;26;20011;-88
2024/04/20 02:41:10;;;;;;;15.75;2.90;;;7.30;99.90;;;;;;5457617;26;20010;-89
2024/04/20 02:43:35;;;;;;;14.80;3.28;;;7.30;99.90;;;;;;5457059;26;20018;-88
2024/04/20 02:46:01;;;;;;;20.83;2.92;;;7.30;99.90;;;;;;5455609;26;19999;-90
2024/04/20 02:48:26;;;;;;;11.68;2.55;;;7.30;99.90;;;;;;5455444;26;20471;-89
2024/04/20 02:50:52;;;;;;;15.48;2.58;;;7.40;99.90;;;;;;5455655;26;20003;-88
2024/04/20 02:53:17;;;;;;;19.15;2.92;;;7.40;99.90;;;;;;5455491;26;20010;-88
2024/04/20 02:55:43;;;;;;;13.80;2.53;;;7.40;99.90;;;;;;5455994;26;20014;-89
2024/04/20 02:58:10;;;;;;;14.75;3.40;;;7.40;99.90;;;;;;5454819;26;19998;-90
2024/04/20 03:00:35;;;;;;;18.17;3.00;;;7.30;99.90;;;;;;5455632;26;19999;-90
2024/04/20 03:03:01;;;;;;;14.73;2.67;;;7.30;99.90;;;;;;5455536;26;19998;-89
2024/04/20 03:05:27;;;;;;;9.48;1.95;;;7.30;99.90;;;;;;5454722;26;20007;-89
2024/04/20 03:07:52;;;;;;;19.73;2.30;;;7.30;99.90;;;;;;5455841;26;20014;-89
2024/04/20 03:10:18;;;;;;;17.15;3.35;;;7.30;99.90;;;;;;5455595;26;20006;-89
2024/04/20 03:12:43;;;;;;;12.95;2.85;;;7.30;99.90;;;;;;5454985;26;19999;-88
2024/04/20 03:15:09;;;;;;;11.13;1.70;;;7.30;99.90;;;;;;5455314;26;20071;-90
2024/04/20 03:17:34;;;;;;;11.05;2.45;;;7.30;99.90;;;;;;5455333;26;20010;-90
2024/04/20 03:20:00;;;;;;;12.02;2.03;;;7.30;99.90;;;;;;5454967;26;19999;-89
2024/04/20 03:22:26;;;;;;;14.15;2.38;;;7.30;99.90;;;;;;5455133;26;20002;-89
2024/04/20 03:24:51;;;;;;;17.13;2.28;;;7.30;99.90;;;;;;5455420;26;20013;-89
2024/04/20 03:27:17;;;;;;;11.30;2.17;;;7.40;99.90;;;;;;5454558;26;20003;-90
2024/04/20 03:29:42;;;;;;;19.33;3.70;;;7.30;99.90;;;;;;5455324;26;20523;-89
2024/04/20 03:32:08;;;;;;;10.43;2.40;;;7.40;99.90;;;;;;5454796;26;20007;-89
2024/04/20 03:34:33;;;;;;;21.67;2.88;;;7.40;99.90;;;;;;5455234;26;20071;-88
2024/04/20 03:36:59;;;;;;;13.80;2.13;;;7.40;99.90;;;;;;5455273;26;20006;-88
2024/04/20 03:39:24;;;;;;;10.60;2.50;;;7.40;99.90;;;;;;5454907;26;20013;-89
2024/04/20 03:41:50;;;;;;;12.95;1.70;;;7.40;99.90;;;;;;5454615;26;19998;-88
2024/04/20 03:44:16;;;;;;;8.95;2.33;;;7.30;99.90;;;;;;5455091;26;20013;-89
2024/04/20 03:46:42;;;;;;;8.77;1.95;;;7.30;99.90;;;;;;5456354;26;19999;-89
2024/04/20 03:49:07;;;;;;;21.55;2.25;;;7.30;99.90;;;;;;5459602;26;20014;-89
2024/04/20 03:51:33;;;;;;;8.63;2.33;;;7.20;99.90;;;;;;5459164;26;19999;-88
2024/04/20 03:54:02;;;;;;;9.48;2.30;;;7.10;99.90;;;;;;5459127;26;19995;-89
2024/04/20 03:56:28;;;;;;;4.65;1.45;;;7.10;99.90;;;;;;5458002;26;20022;-88
2024/04/20 03:58:54;;;;;;;5.80;1.10;;;7.10;99.90;;;;;;5454953;26;19999;-89
2024/04/20 04:01:20;;;;;;;2.95;0.50;;;7.10;99.90;;;;;;5454491;26;20077;-89
2024/04/20 04:03:45;;;;;;;3.95;0.75;;;7.00;99.90;;;;;;5454496;26;20424;-89
2024/04/20 04:06:11;;;;;;;5.88;0.93;;;7.00;99.90;;;;;;5455010;26;19995;-89
2024/04/20 04:08:37;;;;;;;4.35;0.98;;;7.10;99.90;;;;;;5454373;26;19998;-90
2024/04/20 04:11:02;;;;;;;6.82;1.05;;;7.10;99.90;;;;;;5454629;26;19998;-89
2024/04/20 04:13:28;;;;;;;2.60;0.85;;;7.20;99.90;;;;;;5453685;26;20080;-89
2024/04/20 04:15:53;;;;;;;10.10;1.17;;;7.20;99.90;;;;;;5453631;26;19995;-89
2024/04/20 04:18:22;;;;;;;3.80;1.00;;;7.20;99.90;;;;;;5454286;26;20003;-89
2024/04/20 04:20:48;;;;;;;6.22;1.08;;;7.30;99.90;;;;;;5454530;26;20002;-89
2024/04/20 04:23:13;;;;;;;8.18;1.42;;;7.20;99.90;;;;;;5454017;26;19998;-89
2024/04/20 04:25:39;;;;;;;9.77;1.50;;;7.30;99.90;;;;;;5454319;26;20009;-88
2024/04/20 04:28:05;;;;;;;7.97;1.25;;;7.30;99.90;;;;;;5454684;26;20013;-89
2024/04/20 04:30:34;;;;;;;15.07;2.20;;;7.30;99.90;;;;;;5453830;26;20388;-89
2024/04/20 04:33:00;;;;;;;10.55;1.63;;;7.30;99.90;;;;;;5454198;26;20021;-88
2024/04/20 04:35:26;;;;;;;7.35;1.70;;;7.30;99.90;;;;;;5453711;26;19999;-89
2024/04/20 04:37:52;;;;;;;12.18;1.35;;;7.30;99.90;;;;;;5453957;26;19999;-88
2024/04/20 04:40:18;;;;;;;18.92;2.72;;;7.30;99.90;;;;;;5454204;26;20013;-87
2024/04/20 04:42:44;;;;;;;18.85;2.55;;;7.30;99.90;;;;;;5453012;26;20023;-88
2024/04/20 04:45:09;;;;;;;8.80;1.98;;;7.30;99.90;;;;;;5453934;26;20442;-89
2024/04/20 04:47:35;;;;;;;7.45;1.65;;;7.30;99.90;;;;;;5454150;26;20368;-89
2024/04/20 04:50:00;;;;;;;16.27;2.13;;;7.30;99.90;;;;;;5453670;26;20014;-88
2024/04/20 04:52:26;;;;;;;9.32;1.48;;;7.20;99.90;;;;;;5453738;26;20325;-89
2024/04/20 04:54:51;;;;;;;6.20;1.23;;;7.10;99.90;;;;;;5453957;26;20454;-89
2024/04/20 04:57:17;;;;;;;7.00;1.60;;;7.00;99.90;;;;;;5453636;26;20442;-89
2024/04/20 04:59:42;;;;;;;8.25;1.80;;;6.90;99.90;;;;;;5453343;26;20337;-89
2024/04/20 05:02:08;;;;;;;7.32;1.77;;;6.90;99.90;;;;;;5453492;26;19994;-88
2024/04/20 05:04:34;;;;;;;8.10;1.65;;;6.90;99.90;;;;;;5457298;26;20003;-88
2024/04/20 05:07:00;;;;;;;7.10;1.55;;;6.90;99.90;;;;;;5459241;26;20010;-89
2024/04/20 05:09:25;;;;;;;12.85;2.75;;;6.90;99.90;;;;;;5453164;26;20022;-88
2024/04/20 05:11:51;;;;;;;11.85;2.65;;;6.90;99.90;;;;;;5452812;26;20010;-89
2024/04/20 05:14:17;;;;;;;18.00;2.10;;;6.90;99.90;;;;;;5453558;26;20011;-89
2024/04/20 05:16:42;;;;;;;14.05;2.30;;;7.00;99.90;;;;;;5454100;26;19994;-88
2024/04/20 05:19:08;;;;;;;13.18;2.35;;;7.00;99.90;;;;;;5453201;26;20392;-88
2024/04/20 05:21:33;;;;;;;10.60;2.42;;;7.00;99.90;;;;;;5453434;26;20015;-89
2024/04/20 05:24:00;;;;;;;21.17;2.88;;;7.00;99.90;;;;;;5453512;26;19999;-89
2024/04/20 05:26:28;;;;;;;12.02;1.98;;;7.00;99.90;;;;;;5454569;26;20071;-89
2024/04/20 05:28:53;;;;;;;14.20;1.88;;;7.00;99.90;;;;;;5456699;26;20038;-90
2024/04/20 05:31:19;;;;;;;14.02;2.25;;;7.10;99.90;;;;;;5456859;26;20011;-88
2024/04/20 05:33:44;;;;;;;8.02;1.92;;;7.10;99.90;;;;;;5456292;26;20025;-89
2024/04/20 05:36:10;;;;;;;14.98;2.22;;;7.10;99.90;;;;;;5456947;26;20067;-89
2024/04/20 05:38:36;;;;;;;12.68;2.20;;;7.10;99.90;;;;;;5456283;26;20007;-88
2024/04/20 05:41:03;;;;;;;10.10;1.90;;;7.10;99.90;;;;;;5456253;26;19999;-89
2024/04/20 05:43:28;;;;;;;15.43;1.65;;;7.10;99.90;;;;;;5456706;26;20096;-90
2024/04/20 05:45:54;;;;;;;17.45;2.00;;;7.10;99.90;;;;;;5456275;26;20007;-90
2024/04/20 05:48:20;;;;;;;12.98;2.28;;;7.10;99.90;;;;;;5456664;26;20075;-89
2024/04/20 05:50:45;;;;;;;18.75;2.60;;;7.10;99.90;;;;;;5456903;26;20011;-89
2024/04/20 05:53:11;;;;;;;12.80;2.05;;;7.20;99.90;;;;;;5456318;26;20080;-90
2024/04/20 05:55:37;;;;;;;15.93;2.28;;;7.20;99.90;;;;;;5456704;26;20006;-88
2024/04/20 05:58:04;;;;;;;17.98;2.17;;;7.20;99.90;;;;;;5456570;26;19999;-88
2024/04/20 06:00:30;;;;;;;10.77;2.17;;;7.20;99.90;;;;;;5456403;26;19998;-89
2024/04/20 06:02:56;;;;;;;8.77;1.83;;;7.20;99.90;;;;;;5456146;26;20469;-89
2024/04/20 06:05:21;;;;;;;14.73;2.67;;;7.20;99.90;;;;;;5456421;26;20010;-89
2024/04/20 06:07:47;;;;;;;14.73;2.15;;;7.20;99.90;;;;;;5456969;26;20003;-89
2024/04/20 06:10:13;;;;;;;16.77;2.10;;;7.20;99.90;;;;;;5456524;26;20434;-89
2024/04/20 06:12:38;;;;;;;10.05;1.75;;;7.20;99.90;;;;;;5456271;26;20017;-89
2024/04/20 06:15:04;;;;;;;10.00;1.83;;;7.20;99.90;;;;;;5456214;26;20002;-88
2024/04/20 06:17:30;;;;;;;9.23;1.92;;;7.20;99.90;;;;;;5455984;26;20002;-89
2024/04/20 06:19:55;;;;;;;14.75;1.63;;;7.20;99.90;;;;;;5455944;26;20002;-89
2024/04/20 06:22:21;;;;;;;13.40;2.60;;;7.20;99.90;;;;;;5457039;26;19999;-89
2024/04/20 06:24:52;;;;;;;11.15;2.42;;;7.30;99.90;;;;;;5463427;26;20009;-89
2024/04/20 06:27:18;;;;;;;15.43;2.72;;;7.20;99.90;;;;;;5456276;26;19998;-89
2024/04/20 06:29:44;;;;;;;11.93;1.70;;;7.20;99.90;;;;;;5455643;26;20334;-88
2024/04/20 06:32:09;;;;;;;8.63;1.50;;;7.50;99.90;;;;;;5456382;26;20011;-89
2024/04/20 06:34:35;;;;;;;7.65;1.63;;;7.20;99.90;;;;;;5456344;26;20002;-89
2024/04/20 06:37:00;;;;;;;11.68;1.58;;;7.10;99.90;;;;;;5455022;26;19995;-89
2024/04/20 06:39:27;;;;;;;9.65;1.75;;;7.10;99.90;;;;;;5455944;26;20003;-89
2024/04/20 06:41:54;;;;;;;6.65;1.70;;;7.10;99.90;;;;;;5455652;26;20043;-90
2024/04/20 06:44:23;;;;;;;8.57;1.73;;;7.10;99.90;;;;;;5455657;26;20014;-89
2024/04/20 06:46:52;;;;;;;9.13;1.75;;;7.20;99.90;;;;;;5456411;26;19999;-89
2024/04/20 06:49:18;;;;;;;11.43;2.78;;;7.10;99.90;;;;;;5457283;26;19998;-90
2024/04/20 06:51:43;;;;;;;4.90;1.23;;;7.00;99.90;;;;;;5462890;26;20465;-89
2024/04/20 06:54:09;;;;;;;16.02;1.50;;;7.00;99.90;;;;;;5461051;26;19995;-89
2024/04/20 06:56:34;;;;;;;9.20;1.77;;;7.10;99.90;;;;;;5459964;26;20442;-90
2024/04/20 06:59:00;;;;;;;9.93;1.60;;;7.10;99.90;;;;;;5461176;26;20009;-91
2024/04/20 07:01:25;;;;;;;9.38;1.98;;;7.20;99.90;;;;;;5456406;26;20335;-90
2024/04/20 07:03:51;;;;;;;10.63;1.77;;;7.30;99.90;;;;;;5456269;26;19998;-91
2024/04/20 07:06:17;;;;;;;6.55;1.83;;;7.40;99.90;;;;;;5456010;26;20079;-91
2024/04/20 07:08:42;;;;;;;7.43;1.85;;;7.50;99.90;;;;;;5456240;26;20014;-90
2024/04/20 07:11:08;;;;;;;12.13;1.80;;;7.50;99.90;;;;;;5455460;26;20013;-91
2024/04/20 07:13:38;;;;;;;7.47;1.83;;;7.60;99.90;;;;;;5455600;26;19999;-90
2024/04/20 07:16:04;;;;;;;6.90;1.73;;;7.70;99.90;;;;;;5455973;26;19999;-89
2024/04/20 07:18:30;;;;;;;12.90;2.53;;;7.60;99.90;;;;;;5455303;26;20009;-89
2024/04/20 07:20:56;;;;;;;14.30;2.47;;;7.60;99.90;;;;;;5455569;26;19999;-89
2024/04/20 07:23:22;;;;;;;12.23;2.20;;;7.60;99.90;;;;;;5455475;26;20010;-89
2024/04/20 07:26:00;;;;;;;13.25;3.53;;;7.50;99.90;;;;;;5455521;26;20017;-90
2024/04/20 07:28:26;;;;;;;14.30;2.25;;;7.60;99.90;;;;;;5455797;26;19999;-90
2024/04/20 07:30:52;;;;;;;12.00;2.25;;;7.60;99.90;;;;;;5455382;26;20003;-91
2024/04/20 07:33:18;;;;;;;15.23;3.65;;;7.60;99.90;;;;;;5455289;26;20025;-91
2024/04/20 07:35:43;;;;;;;25.95;3.90;;;7.70;99.90;;;;;;5455553;26;20079;-90
2024/04/20 07:38:09;;;;;;;11.73;1.85;;;7.70;99.90;;;;;;5455388;26;20014;-89
2024/04/20 07:40:35;;;;;;;16.55;2.85;;;7.70;99.90;;;;;;5457867;26;20003;-89
2024/04/20 07:43:01;;;;;;;20.58;2.58;;;7.90;99.90;;;;;;5466384;26;20534;-89
2024/04/20 07:45:26;;;;;;;15.68;2.40;;;7.90;99.90;;;;;;5460070;26;20441;-88
2024/04/20 07:47:52;;;;;;;17.13;2.17;;;7.90;99.90;;;;;;5464359;26;20001;-89
2024/04/20 07:50:17;;;;;;;10.70;2.22;;;8.00;99.90;;;;;;5464056;26;20010;-88
2024/04/20 07:52:43;;;;;;;14.40;2.72;;;8.00;99.90;;;;;;5463818;26;20006;-88
2024/04/20 07:55:09;;;;;;;7.10;2.00;;;8.10;99.90;;;;;;5455363;26;20072;-89
2024/04/20 07:57:34;;;;;;;8.43;1.98;;;8.00;99.90;;;;;;5455488;26;20003;-88
2024/04/20 08:00:00;;;;;;;8.48;1.60;;;7.90;99.90;;;;;;5455055;26;20452;-88
2024/04/20 08:02:26;;;;;;;13.05;2.38;;;7.90;99.90;;;;;;5455524;26;20002;-88
2024/04/20 08:04:52;;;;;;;9.38;2.08;;;7.80;99.90;;;;;;5459968;26;20010;-88
2024/04/20 08:07:17;;;;;;;14.68;2.25;;;7.80;99.90;;;;;;5457871;26;19995;-88
2024/04/20 08:09:43;;;;;;;11.90;2.55;;;8.30;99.90;;;;;;5457928;26;19999;-88
2024/04/20 08:12:09;;;;;;;13.75;2.50;;;7.90;99.90;;;;;;5455431;26;20440;-89
2024/04/20 08:14:35;;;;;;;7.70;1.85;;;8.00;99.90;;;;;;5454489;26;20357;-89
2024/04/20 08:17:00;;;;;;;15.85;2.35;;;8.00;99.90;;;;;;5454255;26;20067;-88
2024/04/20 08:19:26;;;;;;;13.02;2.35;;;8.10;99.90;;;;;;5455005;26;20010;-90
2024/04/20 08:21:52;;;;;;;13.88;2.20;;;8.10;99.90;;;;;;5454288;26;20002;-89
2024/04/20 08:24:18;;;;;;;22.45;3.72;;;8.20;99.90;;;;;;5454476;26;20014;-89
2024/04/20 08:26:44;;;;;;;15.07;2.53;;;8.30;99.90;;;;;;5454744;26;20460;-88
2024/04/20 08:29:09;;;;;;;11.05;2.10;;;8.30;99.90;;;;;;5453828;26;20010;-88
2024/04/20 08:31:35;;;;;;;12.20;1.90;;;8.30;99.90;;;;;;5454713;26;19995;-89
2024/04/20 08:34:00;;;;;;;13.27;2.70;;;8.40;99.90;;;;;;5454741;26;20359;-89
2024/04/20 08:36:26;;;;;;;12.55;2.20;;;8.40;99.90;;;;;;5453890;26;20337;-88
2024/04/20 08:38:51;;;;;;;17.55;2.47;;;8.40;99.90;;;;;;5454475;26;20031;-89
2024/04/20 08:41:20;;;;;;;31.55;3.92;;;8.50;99.90;;;;;;5454277;26;20003;-88
2024/04/20 08:43:48;;;;;;;17.02;2.83;;;8.50;99.90;;;;;;5454055;26;20005;-89
2024/04/20 08:46:15;;;;;;;16.33;2.65;;;8.50;99.90;;;;;;5454382;26;20015;-89
2024/04/20 08:48:44;;;;;;;14.73;2.20;;;8.50;99.90;;;;;;5453751;26;20009;-89
2024/04/20 08:51:16;;;;;;;15.63;2.95;;;8.60;99.90;;;;;;5454123;26;19995;-88
2024/04/20 08:53:44;;;;;;;6.97;2.03;;;8.60;99.90;;;;;;5454253;26;20003;-88
2024/04/20 08:56:10;;;;;;;8.07;2.40;;;8.70;99.90;;;;;;5453621;26;20013;-89
2024/04/20 08:58:35;;;;;;;17.23;3.30;;;8.70;99.90;;;;;;5453745;26;19999;-88
2024/04/20 09:01:01;;;;;;;8.38;2.33;;;8.60;99.90;;;;;;5456229;26;20003;-89
2024/04/20 09:03:28;;;;;;;14.95;2.20;;;8.90;99.90;;;;;;5457261;26;20072;-89
2024/04/20 09:05:53;;;;;;;16.00;2.70;;;8.70;99.90;;;;;;5457278;26;20002;-90
2024/04/20 09:08:21;;;;;;;16.42;2.50;;;8.70;99.90;;;;;;5457933;26;20015;-89
2024/04/20 09:10:47;;;;;;;9.98;2.20;;;9.10;99.90;;;;;;5457391;26;20006;-90
2024/04/20 09:13:18;;;;;;;17.65;2.88;;;8.70;99.90;;;;;;5457207;26;20511;-89
2024/04/20 09:15:45;;;;;;;20.17;2.85;;;8.70;99.90;;;;;;5457587;26;19995;-89
2024/04/20 09:18:11;;;;;;;6.93;2.55;;;8.80;99.90;;;;;;5456756;26;20055;-89
2024/04/20 09:20:37;;;;;;;11.20;2.30;;;8.80;99.90;;;;;;5457584;26;20010;-88
2024/04/20 09:23:03;;;;;;;7.57;1.67;;;8.90;99.90;;;;;;5468655;26;20006;-88
2024/04/20 09:25:29;;;;;;;16.67;2.25;;;8.90;99.90;;;;;;5458167;26;20043;-89
2024/04/20 09:27:55;;;;;;;13.05;1.60;;;9.00;99.90;;;;;;5457405;26;20441;-89
2024/04/20 09:30:20;;;;;;;15.48;2.80;;;9.00;99.90;;;;;;5457242;26;20072;-88
2024/04/20 09:32:46;;;;;;;7.90;1.67;;;8.90;99.90;;;;;;5456708;26;20399;-88
2024/04/20 09:35:14;;;;;;;9.15;2.17;;;8.80;99.90;;;;;;5457102;26;20009;-88
2024/04/20 09:37:39;;;;;;;6.13;1.73;;;8.80;99.90;;;;;;5456922;26;20014;-88
2024/04/20 09:40:07;;;;;;;6.10;1.75;;;8.70;99.90;;;;;;5456868;26;19999;-90
2024/04/20 09:42:33;;;;;;;10.43;2.08;;;8.70;99.90;;;;;;5457132;26;19995;-89
2024/04/20 09:45:00;;;;;;;8.48;1.88;;;8.80;99.90;;;;;;5456879;26;20322;-90
2024/04/20 09:47:28;;;;;;;8.85;2.47;;;8.80;99.90;;;;;;5456837;26;20399;-89
2024/04/20 09:49:55;;;;;;;10.52;1.65;;;8.80;99.90;;;;;;5457154;26;20448;-89
2024/04/20 09:52:31;;;;;;;10.65;1.45;;;8.90;99.90;;;;;;5456499;26;19998;-88
2024/04/20 09:55:04;;;;;;;10.60;1.55;;;8.90;99.90;;;;;;5456822;26;20132;-89
2024/04/20 09:57:33;;;;;;;5.50;1.15;;;8.90;99.90;;;;;;5456622;26;20002;-89
2024/04/20 09:59:59;;;;;;;6.78;1.70;;;9.60;99.90;;;;;;5456592;26;20480;-89
2024/04/20 10:02:25;;;;;;;5.10;1.00;;;9.00;99.90;;;;;;5456462;26;19999;-88
2024/04/20 10:04:58;;;;;;;8.13;1.88;;;9.00;99.90;;;;;;5456864;26;20003;-89
2024/04/20 10:07:33;;;;;;;5.03;1.02;;;9.00;99.90;;;;;;5456570;26;20437;-88
2024/04/20 10:10:00;;;;;;;5.85;1.73;;;8.90;99.90;;;;;;5457741;26;19999;-89
2024/04/20 10:12:28;;;;;;;7.03;1.30;;;8.90;99.90;;;;;;5456291;26;20490;-88
2024/04/20 10:14:55;;;;;;;8.90;1.60;;;8.90;99.90;;;;;;5456852;26;19999;-88
2024/04/20 10:17:21;;;;;;;7.68;1.83;;;8.90;99.90;;;;;;5456806;26;20003;-88
2024/04/20 10:19:50;;;;;;;13.73;2.33;;;8.90;99.90;;;;;;5456725;26;20014;-90
2024/04/20 10:22:15;;;;;;;8.25;1.73;;;9.00;99.90;;;;;;5456541;26;20017;-88
2024/04/20 10:25:00;;;;;;;7.07;2.22;;;9.00;99.90;;;;;;5457506;26;19999;-89
2024/04/20 10:27:33;;;;;;;8.68;1.70;;;9.40;99.90;;;;;;5459565;26;20043;-88
2024/04/20 10:30:17;;;;;;;10.98;1.75;;;9.20;99.90;;;;;;5459582;26;19995;-88
2024/04/20 10:32:43;;;;;;;10.15;1.90;;;9.20;99.90;;;;;;5460091;26;20002;-88
2024/04/20 10:35:08;;;;;;;7.25;1.52;;;9.30;99.90;;;;;;5464793;26;20021;-88
2024/04/20 10:37:35;;;;;;;12.13;1.65;;;9.30;99.90;;;;;;5467348;26;20010;-88
2024/04/20 10:40:11;;;;;;;7.32;1.75;;;9.30;99.90;;;;;;5464424;26;20051;-88
2024/04/20 10:42:37;;;;;;;7.53;1.63;;;9.30;99.90;;;;;;5464372;26;19998;-88
2024/04/20 10:45:06;;;;;;;9.25;1.60;;;9.30;99.90;;;;;;5462327;26;20310;-88
2024/04/20 10:47:35;;;;;;;13.82;1.98;;;9.40;99.90;;;;;;5461617;26;20071;-86
2024/04/20 10:50:01;;;;;;;17.15;2.15;;;9.50;99.90;;;;;;5461809;26;20044;-89
2024/04/20 10:52:27;;;;;;;13.65;2.53;;;9.50;99.90;;;;;;5456740;26;20002;-88
2024/04/20 10:54:53;;;;;;;11.57;2.33;;;9.50;99.90;;;;;;5456005;26;19998;-88
2024/04/20 10:57:20;;;;;;;13.07;2.08;;;9.50;99.90;;;;;;5455627;26;20007;-89
2024/04/20 10:59:45;;;;;;;8.57;1.88;;;9.60;99.90;;;;;;5455558;26;20383;-89
2024/04/20 11:02:14;;;;;;;10.80;2.30;;;9.60;99.90;;;;;;5455378;26;20009;-89
2024/04/20 11:04:41;;;;;;;6.13;1.40;;;9.70;99.90;;;;;;5455415;26;20002;-89
2024/04/20 11:07:06;;;;;;;8.88;1.30;;;9.70;99.90;;;;;;5455861;26;20056;-89
2024/04/20 11:09:32;;;;;;;11.75;1.83;;;9.50;99.90;;;;;;5455212;26;20010;-87
2024/04/20 11:12:03;;;;;;;4.70;1.10;;;9.50;99.90;;;;;;5455849;26;20464;-89
2024/04/20 11:14:34;;;;;;;;;;;9.40;99.90;;;;;;5455910;26;20010;-87
2024/04/20 11:17:02;;;;;;;5.88;1.70;;;9.40;99.90;;;;;;5455389;26;19933;-88
2024/04/20 11:19:34;;;;;;;6.10;1.50;;;9.30;99.90;;;;;;5455143;26;20460;-88
2024/04/20 11:22:00;;;;;;;18.10;1.95;;;9.30;99.90;;;;;;5455701;26;20038;-88
2024/04/20 11:24:27;;;;;;;10.48;1.83;;;9.30;99.90;;;;;;5454670;26;20002;-88
2024/04/20 11:27:07;;;;;;;8.10;1.17;;;9.40;99.90;;;;;;5455641;26;19994;-87
2024/04/20 11:29:33;;;;;;;8.48;1.35;;;9.30;99.90;;;;;;5454815;26;19998;-88
2024/04/20 11:32:02;;;;;;;4.72;1.20;;;9.20;99.90;;;;;;5455036;26;20075;-89
2024/04/20 11:34:28;;;;;;;11.45;1.88;;;8.90;99.90;;;;;;5454808;26;20446;-88
2024/04/20 11:36:54;;;;;;;11.70;1.70;;;8.80;99.90;;;;;;5455328;26;19999;-88
2024/04/20 11:39:20;;;;;;;9.95;2.10;;;8.80;99.90;;;;;;5454395;26;20052;-89
2024/04/20 11:41:45;;;;;;;15.75;2.33;;;8.80;99.90;;;;;;5455269;26;20013;-87
2024/04/20 11:44:12;;;;;;;7.45;1.80;;;9.10;99.90;;;;;;5455045;26;19995;-88
2024/04/20 11:46:40;;;;;;;7.20;1.52;;;8.90;99.90;;;;;;5454560;26;20337;-88
2024/04/20 11:49:13;;;;;;;14.30;1.77;;;9.00;99.90;;;;;;5455544;26;20002;-88
2024/04/20 11:54:25;;;;;;;10.68;1.90;;;9.30;99.90;;;;;;5455393;26;20002;-89
2024/04/20 11:56:52;;;;;;;10.48;2.10;;;9.50;99.90;;;;;;5455259;26;20030;-89
2024/04/20 11:59:18;;;;;;;8.77;2.67;;;9.60;99.90;;;;;;5469904;26;19995;-88
2024/04/20 12:01:43;;;;;;;7.22;1.92;;;9.70;99.90;;;;;;5457568;26;19995;-89
2024/04/20 12:04:11;;;;;;;8.02;2.47;;;9.70;99.90;;;;;;5455248;26;20156;-88
2024/04/20 12:06:37;;;;;;;3.63;1.25;;;9.70;99.90;;;;;;5454692;26;19999;-88
2024/04/20 12:09:03;;;;;;;15.80;1.77;;;9.60;99.90;;;;;;5454506;26;20075;-88
2024/04/20 12:11:29;;;;;;;13.02;2.35;;;9.70;99.90;;;;;;5454829;26;20014;-90
2024/04/20 12:13:55;;;;;;;6.82;1.73;;;9.80;99.90;;;;;;5453785;26;20442;-89
2024/04/20 12:16:21;;;;;;;9.48;1.58;;;9.90;99.90;;;;;;5454052;26;20449;-89
2024/04/20 12:18:46;;;;;;;8.13;1.70;;;10.00;99.90;;;;;;5454672;26;20071;-88
2024/04/20 12:21:13;;;;;;;7.65;1.27;;;10.10;99.90;;;;;;5453871;26;20015;-88
2024/04/20 12:23:40;;;;;;;16.42;2.47;;;10.20;99.90;;;;;;5454457;26;19994;-89
2024/04/20 12:26:07;;;;;;;9.23;1.77;;;10.30;99.90;;;;;;5454367;26;20003;-89
2024/04/20 12:28:33;;;;;;;9.55;1.98;;;10.30;99.90;;;;;;5454349;26;19995;-88
2024/04/20 12:31:00;;;;;;;10.05;2.13;;;10.40;99.90;;;;;;5454253;26;20090;-90
2024/04/20 12:33:26;;;;;;;10.60;1.70;;;10.40;99.90;;;;;;5454343;26;20009;-88
2024/04/20 12:35:52;;;;;;;7.32;1.77;;;10.30;99.90;;;;;;5453503;26;20077;-88
2024/04/20 12:38:19;;;;;;;10.60;2.17;;;10.30;99.90;;;;;;5454166;26;20007;-89
2024/04/20 12:40:45;;;;;;;10.38;2.10;;;10.20;99.90;;;;;;5453862;26;20046;-88
2024/04/20 12:43:10;;;;;;;6.63;1.40;;;10.10;99.90;;;;;;5453980;26;19995;-88
2024/04/20 12:45:36;;;;;;;7.72;1.20;;;10.10;99.90;;;;;;5454831;26;20133;-90
2024/04/20 12:48:02;;;;;;;7.72;1.52;;;10.10;99.90;;;;;;5454274;26;20118;-89